Terminal Aerodrome Forecast
Issued by NWS Austin/San Antonio, TX

Home | Current Version | Previous Version | Text Only | Print | Product List | Glossary On
Versions: 1 2 3 4 5 6 7 8 9 10 11 12
000
FTUS44 KEWX 292341
TAFDRT
TAF
KDRT 292341Z 3000/3024 15009KT P6SM SCT250
     FM301200 11005KT 5SM BR OVC005
     FM301800 13003KT P6SM BKN015
     FM301900 13006KT P6SM BKN250=

USA.gov is the U.S. government's official web portal to all federal, state and local government web resources and services.